Time,TemperatureF,DewpointF,PressureIn,WindDirection,WindDirectionDegrees,WindSpeedMPH,WindSpeedGustMPH,Humidity,HourlyPrecipIn,Conditions,Clouds,dailyrainin,SoftwareType,DateUTC
2013-11-28 00:05:00,27.9,16.2,29.81,NW,315,3.7,-999.0,61,-99.99,,,0.00,Acu-Link.com,2013-11-28 05:05:00,
2013-11-28 00:20:00,27.9,17.0,29.82,West,270,3.2,-999.0,63,-99.99,,,0.00,Acu-Link.com,2013-11-28 05:20:00,
2013-11-28 00:35:00,27.7,17.1,29.83,West,270,3.7,-999.0,64,-99.99,,,0.00,Acu-Link.com,2013-11-28 05:35:00,
2013-11-28 00:50:00,27.5,16.9,29.84,West,270,3.2,-999.0,64,-99.99,,,0.00,Acu-Link.com,2013-11-28 05:50:00,
2013-11-28 01:06:00,27.1,16.9,29.85,NW,315,2.2,-999.0,65,-99.99,,,0.00,Acu-Link.com,2013-11-28 06:06:00,
2013-11-28 01:21:00,27.0,16.8,29.85,West,270,3.2,-999.0,65,-99.99,,,0.00,Acu-Link.com,2013-11-28 06:21:00,
2013-11-28 01:36:00,27.0,16.8,29.86,West,270,3.7,-999.0,65,-99.99,,,0.00,Acu-Link.com,2013-11-28 06:36:00,
2013-11-28 01:51:00,26.8,16.6,29.87,West,270,4.2,-999.0,65,-99.99,,,0.00,Acu-Link.com,2013-11-28 06:51:00,
2013-11-28 02:06:00,26.8,17.3,29.88,WSW,247,2.7,-999.0,67,-99.99,,,0.00,Acu-Link.com,2013-11-28 07:06:00,
2013-11-28 02:21:00,26.8,16.6,29.89,West,270,2.2,-999.0,65,-99.99,,,0.00,Acu-Link.com,2013-11-28 07:21:00,
2013-11-28 02:37:00,26.6,16.4,29.91,West,270,2.7,-999.0,65,-99.99,,,0.00,Acu-Link.com,2013-11-28 07:37:00,
2013-11-28 02:52:00,26.6,16.4,29.92,WSW,247,3.2,-999.0,65,-99.99,,,0.00,Acu-Link.com,2013-11-28 07:52:00,
2013-11-28 03:07:00,26.4,16.3,29.93,West,270,3.2,-999.0,65,-99.99,,,0.00,Acu-Link.com,2013-11-28 08:07:00,
2013-11-28 03:22:00,26.6,16.4,29.93,West,270,2.2,-999.0,65,-99.99,,,0.00,Acu-Link.com,2013-11-28 08:22:00,
2013-11-28 03:37:00,26.4,16.6,29.95,West,270,1.1,-999.0,66,-99.99,,,0.00,Acu-Link.com,2013-11-28 08:37:00,
2013-11-28 03:53:00,26.2,16.4,29.96,West,270,2.7,-999.0,66,-99.99,,,0.00,Acu-Link.com,2013-11-28 08:53:00,
2013-11-28 04:08:00,26.2,17.1,29.98,West,270,2.2,-999.0,68,-99.99,,,0.00,Acu-Link.com,2013-11-28 09:08:00,
2013-11-28 04:23:00,26.1,18.0,30.00,NNW,337,1.1,-999.0,71,-99.99,,,0.00,Acu-Link.com,2013-11-28 09:23:00,
2013-11-28 04:38:00,25.9,18.5,30.00,NNW,337,3.7,-999.0,73,-99.99,,,0.00,Acu-Link.com,2013-11-28 09:38:00,
2013-11-28 04:53:00,25.9,18.1,30.02,WSW,247,1.7,-999.0,72,-99.99,,,0.00,Acu-Link.com,2013-11-28 09:53:00,
2013-11-28 05:09:00,25.9,17.8,30.03,WNW,292,3.7,-999.0,71,-99.99,,,0.00,Acu-Link.com,2013-11-28 10:09:00,
2013-11-28 05:24:00,25.7,18.3,30.03,SSW,202,2.7,-999.0,73,-99.99,,,0.00,Acu-Link.com,2013-11-28 10:24:00,
2013-11-28 05:39:00,25.3,18.8,30.05,WNW,292,2.2,-999.0,76,-99.99,,,0.00,Acu-Link.com,2013-11-28 10:39:00,
2013-11-28 05:54:00,25.0,18.8,30.06,WNW,292,2.2,-999.0,77,-99.99,,,0.00,Acu-Link.com,2013-11-28 10:54:00,
2013-11-28 06:09:00,24.4,18.2,30.06,WNW,292,1.7,-999.0,77,-99.99,,,0.00,Acu-Link.com,2013-11-28 11:09:00,
2013-11-28 06:25:00,24.3,18.1,30.07,West,270,3.7,-999.0,77,-99.99,,,0.00,Acu-Link.com,2013-11-28 11:25:00,
2013-11-28 06:40:00,24.6,17.8,30.07,WNW,292,2.7,-999.0,75,-99.99,,,0.00,Acu-Link.com,2013-11-28 11:40:00,
2013-11-28 06:55:00,24.3,17.5,30.09,WNW,292,1.1,-999.0,75,-99.99,,,0.00,Acu-Link.com,2013-11-28 11:55:00,
2013-11-28 07:10:00,23.7,17.0,30.10,NW,315,1.7,-999.0,75,-99.99,,,0.00,Acu-Link.com,2013-11-28 12:10:00,
2013-11-28 07:25:00,23.7,17.0,30.11,WNW,292,0.0,-999.0,75,-99.99,,,0.00,Acu-Link.com,2013-11-28 12:25:00,
2013-11-28 07:41:00,23.4,16.7,30.12,NW,315,1.1,-999.0,75,-99.99,,,0.00,Acu-Link.com,2013-11-28 12:41:00,
2013-11-28 07:56:00,23.9,15.9,30.13,WNW,292,1.7,-999.0,71,-99.99,,,0.00,Acu-Link.com,2013-11-28 12:56:00,
2013-11-28 08:11:00,24.3,15.3,30.15,NNW,337,3.7,-999.0,68,-99.99,,,0.00,Acu-Link.com,2013-11-28 13:11:00,
2013-11-28 08:26:00,25.3,14.9,30.16,West,270,2.7,-999.0,64,-99.99,,,0.00,Acu-Link.com,2013-11-28 13:26:00,
2013-11-28 08:42:00,25.9,14.7,30.17,West,270,2.7,-999.0,62,-99.99,,,0.00,Acu-Link.com,2013-11-28 13:42:00,
2013-11-28 08:57:00,26.4,14.0,30.18,NNW,337,2.2,-999.0,59,-99.99,,,0.00,Acu-Link.com,2013-11-28 13:57:00,
2013-11-28 09:12:00,27.0,14.2,30.19,NW,315,1.7,-999.0,58,-99.99,,,0.00,Acu-Link.com,2013-11-28 14:12:00,
2013-11-28 09:27:00,27.1,14.3,30.19,NNW,337,1.1,-999.0,58,-99.99,,,0.00,Acu-Link.com,2013-11-28 14:27:00,
2013-11-28 09:43:00,27.5,14.7,30.21,NNE,22,2.7,-999.0,58,-99.99,,,0.00,Acu-Link.com,2013-11-28 14:43:00,
2013-11-28 09:58:00,28.0,15.2,30.21,North,0,1.7,-999.0,58,-99.99,,,0.00,Acu-Link.com,2013-11-28 14:58:00,
2013-11-28 10:13:00,28.8,15.1,30.21,NNW,337,3.7,-999.0,56,-99.99,,,0.00,Acu-Link.com,2013-11-28 15:13:00,
2013-11-28 10:28:00,29.5,14.9,30.22,North,0,2.2,-999.0,54,-99.99,,,0.00,Acu-Link.com,2013-11-28 15:28:00,
2013-11-28 10:44:00,30.2,15.2,30.22,WNW,292,3.7,-999.0,53,-99.99,,,0.00,Acu-Link.com,2013-11-28 15:44:00,
2013-11-28 10:59:00,29.8,14.8,30.22,NW,315,5.8,-999.0,53,-99.99,,,0.00,Acu-Link.com,2013-11-28 15:59:00,
2013-11-28 11:14:00,30.2,15.6,30.22,West,270,3.2,-999.0,54,-99.99,,,0.00,Acu-Link.com,2013-11-28 16:14:00,
2013-11-28 11:29:00,30.7,16.0,30.22,West,270,3.7,-999.0,54,-99.99,,,0.00,Acu-Link.com,2013-11-28 16:29:00,
2013-11-28 11:44:00,31.5,15.9,30.22,NNW,337,3.7,-999.0,52,-99.99,,,0.00,Acu-Link.com,2013-11-28 16:44:00,
2013-11-28 11:59:00,32.0,17.7,30.22,West,270,4.2,-999.0,55,-99.99,,,0.00,Acu-Link.com,2013-11-28 16:59:00,
2013-11-28 12:14:00,32.4,17.2,30.22,West,270,3.2,-999.0,53,-99.99,,,0.00,Acu-Link.com,2013-11-28 17:14:00,
2013-11-28 12:29:00,31.3,16.6,30.22,West,270,3.2,-999.0,54,-99.99,,,0.00,Acu-Link.com,2013-11-28 17:29:00,
2013-11-28 12:45:00,31.6,18.9,30.22,West,270,2.2,-999.0,59,-99.99,,,0.00,Acu-Link.com,2013-11-28 17:45:00,
2013-11-28 13:00:00,32.2,18.7,30.22,WNW,292,2.7,-999.0,57,-99.99,,,0.00,Acu-Link.com,2013-11-28 18:00:00,
2013-11-28 13:15:00,32.2,17.9,30.21,West,270,4.7,-999.0,55,-99.99,,,0.00,Acu-Link.com,2013-11-28 18:15:00,
2013-11-28 13:30:00,33.3,18.9,30.21,NNW,337,2.7,-999.0,55,-99.99,,,0.00,Acu-Link.com,2013-11-28 18:30:00,
2013-11-28 13:45:00,33.6,17.9,30.21,NW,315,4.2,-999.0,52,-99.99,,,0.00,Acu-Link.com,2013-11-28 18:45:00,
2013-11-28 14:01:00,32.5,17.7,30.21,West,270,2.7,-999.0,54,-99.99,,,0.00,Acu-Link.com,2013-11-28 19:01:00,
2013-11-28 14:16:00,32.2,17.9,30.20,West,270,2.2,-999.0,55,-99.99,,,0.00,Acu-Link.com,2013-11-28 19:16:00,
2013-11-28 14:31:00,31.8,19.9,30.21,South,180,2.7,-999.0,61,-99.99,,,0.00,Acu-Link.com,2013-11-28 19:31:00,
2013-11-28 14:46:00,31.5,20.0,30.22,West,270,4.7,-999.0,62,-99.99,,,0.00,Acu-Link.com,2013-11-28 19:46:00,
2013-11-28 15:02:00,30.9,19.4,30.23,South,180,2.7,-999.0,62,-99.99,,,0.00,Acu-Link.com,2013-11-28 20:02:00,
2013-11-28 15:17:00,30.6,19.2,30.23,West,270,5.3,-999.0,62,-99.99,,,0.00,Acu-Link.com,2013-11-28 20:17:00,
2013-11-28 15:32:00,30.7,19.6,30.24,West,270,2.2,-999.0,63,-99.99,,,0.00,Acu-Link.com,2013-11-28 20:32:00,
2013-11-28 15:48:00,30.7,19.6,30.24,West,270,2.2,-999.0,63,-99.99,,,0.00,Acu-Link.com,2013-11-28 20:48:00,
2013-11-28 16:03:00,30.0,18.6,30.24,West,270,2.7,-999.0,62,-99.99,,,0.00,Acu-Link.com,2013-11-28 21:03:00,
2013-11-28 16:18:00,29.7,18.7,30.25,West,270,2.2,-999.0,63,-99.99,,,0.00,Acu-Link.com,2013-11-28 21:18:00,
2013-11-28 16:34:00,29.5,18.5,30.25,West,270,2.2,-999.0,63,-99.99,,,0.00,Acu-Link.com,2013-11-28 21:34:00,
2013-11-28 16:49:00,29.1,18.1,30.25,West,270,3.2,-999.0,63,-99.99,,,0.00,Acu-Link.com,2013-11-28 21:49:00,
2013-11-28 17:04:00,28.8,18.2,30.26,West,270,3.2,-999.0,64,-99.99,,,0.00,Acu-Link.com,2013-11-28 22:04:00,
2013-11-28 17:20:00,28.6,18.0,30.27,West,270,2.2,-999.0,64,-99.99,,,0.00,Acu-Link.com,2013-11-28 22:20:00,
2013-11-28 17:35:00,28.6,18.7,30.27,West,270,2.2,-999.0,66,-99.99,,,0.00,Acu-Link.com,2013-11-28 22:35:00,
2013-11-28 17:50:00,28.4,18.9,30.28,WSW,247,3.2,-999.0,67,-99.99,,,0.00,Acu-Link.com,2013-11-28 22:50:00,
2013-11-28 18:05:00,28.4,18.5,30.29,West,270,0.0,-999.0,66,-99.99,,,0.00,Acu-Link.com,2013-11-28 23:05:00,
2013-11-28 18:20:00,28.2,18.7,30.29,West,270,0.0,-999.0,67,-99.99,,,0.00,Acu-Link.com,2013-11-28 23:20:00,
2013-11-28 18:35:00,28.2,18.7,30.30,West,270,2.7,-999.0,67,-99.99,,,0.00,Acu-Link.com,2013-11-28 23:35:00,
2013-11-28 18:51:00,28.2,19.0,30.30,West,270,1.7,-999.0,68,-99.99,,,0.00,Acu-Link.com,2013-11-28 23:51:00,
2013-11-28 19:06:00,28.0,19.2,30.31,West,270,2.7,-999.0,69,-99.99,,,0.00,Acu-Link.com,2013-11-29 00:06:00,
2013-11-28 19:21:00,28.0,19.2,30.31,West,270,0.0,-999.0,69,-99.99,,,0.00,Acu-Link.com,2013-11-29 00:21:00,
2013-11-28 19:36:00,28.0,19.2,30.32,West,270,1.1,-999.0,69,-99.99,,,0.00,Acu-Link.com,2013-11-29 00:36:00,
2013-11-28 19:51:00,28.0,19.2,30.32,West,270,0.0,-999.0,69,-99.99,,,0.00,Acu-Link.com,2013-11-29 00:51:00,
2013-11-28 20:06:00,28.0,18.8,30.33,West,270,0.0,-999.0,68,-99.99,,,0.00,Acu-Link.com,2013-11-29 01:06:00,
2013-11-28 20:22:00,28.2,18.7,30.33,SSW,202,1.1,-999.0,67,-99.99,,,0.00,Acu-Link.com,2013-11-29 01:22:00,
2013-11-28 20:37:00,28.2,18.7,30.33,SSW,202,1.1,-999.0,67,-99.99,,,0.00,Acu-Link.com,2013-11-29 01:37:00,
2013-11-28 20:52:00,28.2,18.3,30.33,SSW,202,1.7,-999.0,66,-99.99,,,0.00,Acu-Link.com,2013-11-29 01:52:00,
2013-11-28 21:08:00,28.2,18.3,30.34,SSW,202,2.2,-999.0,66,-99.99,,,0.00,Acu-Link.com,2013-11-29 02:08:00,
2013-11-28 21:23:00,28.2,18.0,30.34,SSW,202,2.2,-999.0,65,-99.99,,,0.00,Acu-Link.com,2013-11-29 02:23:00,
2013-11-28 21:38:00,28.2,17.6,30.34,SSW,202,2.2,-999.0,64,-99.99,,,0.00,Acu-Link.com,2013-11-29 02:38:00,
2013-11-28 21:54:00,28.2,18.0,30.34,SSW,202,0.0,-999.0,65,-99.99,,,0.00,Acu-Link.com,2013-11-29 02:54:00,
2013-11-28 22:09:00,28.2,18.0,30.34,SSW,202,0.0,-999.0,65,-99.99,,,0.00,Acu-Link.com,2013-11-29 03:09:00,
2013-11-28 22:24:00,28.2,18.0,30.34,SSW,202,0.0,-999.0,65,-99.99,,,0.00,Acu-Link.com,2013-11-29 03:24:00,
2013-11-28 22:39:00,28.0,18.1,30.34,SSW,202,0.0,-999.0,66,-99.99,,,0.00,Acu-Link.com,2013-11-29 03:39:00,
2013-11-28 22:55:00,28.0,17.8,30.35,SSW,202,0.0,-999.0,65,-99.99,,,0.00,Acu-Link.com,2013-11-29 03:55:00,
2013-11-28 23:10:00,28.0,18.5,30.35,SSW,202,0.0,-999.0,67,-99.99,,,0.00,Acu-Link.com,2013-11-29 04:10:00,
2013-11-28 23:25:00,28.0,18.5,30.35,SSW,202,1.1,-999.0,67,-99.99,,,0.00,Acu-Link.com,2013-11-29 04:25:00,
2013-11-28 23:40:00,27.7,18.2,30.36,SSW,202,0.0,-999.0,67,-99.99,,,0.00,Acu-Link.com,2013-11-29 04:40:00,
2013-11-28 23:56:00,27.7,18.2,30.35,SSW,202,0.0,-999.0,67,-99.99,,,0.00,Acu-Link.com,2013-11-29 04:56:00,